N74T KASH-KBOS
Flight info
| Callsign | N74T |
|---|---|
| Flight time | N/A |
| Altitude | 2000 |
| Route | VPTOB |
| Aircraft | C172/L-SFG/C |
Departure
| Time | 2026-04-12 21:49 |
|---|---|
| Airport | Nashua Airport / Boire Field (KASH) |
Arrival
| Time | N/A |
|---|---|
| Airport | Boston Logan International Airport (KBOS) |
| Time | Latitude | Longitude | Altitude | Speed | Heading |
|---|---|---|---|---|---|
| 2026-04-12 21:20 | 42.77964 | -71.51334 | 200 ft | 0 kts | 123° |
| 2026-04-12 21:43 | 42.77963 | -71.51334 | 200 ft | 1 kts | 124° |
| 2026-04-12 21:43 | 42.77974 | -71.51309 | 210 ft | 3 kts | 354° |
| 2026-04-12 21:44 | 42.77975 | -71.51310 | 210 ft | 0 kts | 345° |
| 2026-04-12 21:44 | 42.78000 | -71.51358 | 200 ft | 13 kts | 304° |
| 2026-04-12 21:44 | 42.78038 | -71.51419 | 205 ft | 6 kts | 42° |
| 2026-04-12 21:44 | 42.78080 | -71.51446 | 201 ft | 11 kts | 302° |
| 2026-04-12 21:45 | 42.78131 | -71.51556 | 201 ft | 17 kts | 303° |
| 2026-04-12 21:45 | 42.78203 | -71.51706 | 202 ft | 20 kts | 302° |
| 2026-04-12 21:45 | 42.78278 | -71.51864 | 204 ft | 19 kts | 302° |
| 2026-04-12 21:45 | 42.78345 | -71.52007 | 200 ft | 17 kts | 305° |
| 2026-04-12 21:46 | 42.78406 | -71.52139 | 209 ft | 18 kts | 302° |
| 2026-04-12 21:46 | 42.78477 | -71.52287 | 208 ft | 18 kts | 303° |
| 2026-04-12 21:46 | 42.78558 | -71.52393 | 204 ft | 15 kts | 339° |
| 2026-04-12 21:46 | 42.78620 | -71.52400 | 207 ft | 0 kts | 33° |
| 2026-04-12 21:47 | 42.78622 | -71.52398 | 204 ft | 3 kts | 34° |
| 2026-04-12 21:48 | 42.78671 | -71.52355 | 204 ft | 11 kts | 34° |
| 2026-04-12 21:48 | 42.78638 | -71.52248 | 210 ft | 33 kts | 124° |
| 2026-04-12 21:48 | 42.78420 | -71.51786 | 201 ft | 79 kts | 124° |
| 2026-04-12 21:48 | 42.78112 | -71.51092 | 393 ft | 83 kts | 125° |
| 2026-04-12 21:49 | 42.77807 | -71.50438 | 714 ft | 76 kts | 129° |
| 2026-04-12 21:49 | 42.77832 | -71.49744 | 742 ft | 94 kts | 57° |
| 2026-04-12 21:49 | 42.78426 | -71.49279 | 852 ft | 99 kts | 28° |
| 2026-04-12 21:49 | 42.79088 | -71.49066 | 999 ft | 97 kts | 347° |
| 2026-04-12 21:50 | 42.79433 | -71.49403 | 1118 ft | 92 kts | 292° |
| 2026-04-12 21:50 | 42.79766 | -71.50598 | 1192 ft | 104 kts | 289° |
| 2026-04-12 21:50 | 42.80002 | -71.51160 | 1246 ft | 103 kts | 296° |
| 2026-04-12 21:50 | 42.80369 | -71.51959 | 1255 ft | 93 kts | 297° |
| 2026-04-12 21:51 | 42.80400 | -71.52720 | 1097 ft | 75 kts | 228° |
| 2026-04-12 21:51 | 42.80073 | -71.53322 | 823 ft | 81 kts | 222° |
| 2026-04-12 21:51 | 42.79590 | -71.53424 | 639 ft | 76 kts | 160° |
| 2026-04-12 21:51 | 42.79124 | -71.53132 | 445 ft | 73 kts | 141° |
| 2026-04-12 21:52 | 42.78805 | -71.52595 | 286 ft | 70 kts | 130° |
| 2026-04-12 21:52 | 42.78557 | -71.52075 | 203 ft | 59 kts | 127° |
| 2026-04-12 21:52 | 42.78326 | -71.51580 | 212 ft | 76 kts | 127° |
| 2026-04-12 21:52 | 42.78087 | -71.51013 | 553 ft | 63 kts | 124° |
| 2026-04-12 21:53 | 42.77859 | -71.50449 | 742 ft | 75 kts | 120° |
| 2026-04-12 21:53 | 42.78008 | -71.49821 | 885 ft | 86 kts | 31° |
| 2026-04-12 21:53 | 42.78605 | -71.49592 | 1057 ft | 88 kts | 24° |
| 2026-04-12 21:53 | 42.79182 | -71.49853 | 1133 ft | 93 kts | 302° |
| 2026-04-12 21:54 | 42.79564 | -71.50585 | 1231 ft | 96 kts | 303° |
| 2026-04-12 21:54 | 42.79995 | -71.51309 | 1225 ft | 102 kts | 304° |
| 2026-04-12 21:54 | 42.80335 | -71.52017 | 1190 ft | 76 kts | 269° |
| 2026-04-12 21:54 | 42.80138 | -71.52528 | 1080 ft | 56 kts | 223° |
| 2026-04-12 21:55 | 42.79797 | -71.52914 | 808 ft | 68 kts | 200° |
| 2026-04-12 21:55 | 42.79383 | -71.53254 | 635 ft | 69 kts | 199° |
| 2026-04-12 21:55 | 42.79002 | -71.52989 | 456 ft | 70 kts | 125° |
| 2026-04-12 21:55 | 42.78724 | -71.52425 | 278 ft | 72 kts | 127° |
| 2026-04-12 21:56 | 42.78468 | -71.51892 | 199 ft | 60 kts | 122° |
| 2026-04-12 21:56 | 42.78247 | -71.51418 | 200 ft | 72 kts | 127° |
| 2026-04-12 21:56 | 42.78011 | -71.50862 | 509 ft | 62 kts | 127° |
| 2026-04-12 21:56 | 42.77789 | -71.50326 | 733 ft | 73 kts | 114° |
| 2026-04-12 21:57 | 42.78043 | -71.49738 | 847 ft | 91 kts | 34° |
| 2026-04-12 21:57 | 42.78615 | -71.49425 | 1055 ft | 91 kts | 1° |
| 2026-04-12 21:57 | 42.79139 | -71.49879 | 1146 ft | 93 kts | 301° |
| 2026-04-12 21:57 | 42.79558 | -71.50589 | 1232 ft | 98 kts | 311° |
| 2026-04-12 21:58 | 42.80046 | -71.51263 | 1248 ft | 102 kts | 311° |
| 2026-04-12 21:58 | 42.80504 | -71.51922 | 1272 ft | 88 kts | 305° |
| 2026-04-12 21:58 | 42.80584 | -71.52632 | 1258 ft | 77 kts | 228° |
| 2026-04-12 21:58 | 42.80262 | -71.53160 | 1136 ft | 68 kts | 221° |
| 2026-04-12 21:59 | 42.79902 | -71.53567 | 930 ft | 66 kts | 199° |
| 2026-04-12 21:59 | 42.79462 | -71.53582 | 689 ft | 70 kts | 161° |
| 2026-04-12 21:59 | 42.79099 | -71.53166 | 500 ft | 70 kts | 133° |
| 2026-04-12 21:59 | 42.78820 | -71.52620 | 327 ft | 70 kts | 130° |
| 2026-04-12 22:00 | 42.78559 | -71.52078 | 207 ft | 63 kts | 126° |
| 2026-04-12 22:00 | 42.78340 | -71.51617 | 196 ft | 66 kts | 123° |
| 2026-04-12 22:00 | 42.78088 | -71.51038 | 441 ft | 67 kts | 124° |
| 2026-04-12 22:00 | 42.77834 | -71.50481 | 708 ft | 74 kts | 124° |
| 2026-04-12 22:01 | 42.77576 | -71.49867 | 974 ft | 69 kts | 109° |
| 2026-04-12 22:01 | 42.77812 | -71.49243 | 1074 ft | 92 kts | 36° |
| 2026-04-12 22:01 | 42.78420 | -71.48924 | 1193 ft | 95 kts | 12° |
| 2026-04-12 22:01 | 42.79031 | -71.49302 | 1221 ft | 105 kts | 308° |
| 2026-04-12 22:02 | 42.79497 | -71.50077 | 1290 ft | 106 kts | 304° |
| 2026-04-12 22:02 | 42.79955 | -71.50903 | 1282 ft | 110 kts | 298° |
| 2026-04-12 22:02 | 42.80370 | -71.51679 | 1283 ft | 89 kts | 287° |
| 2026-04-12 22:02 | 42.80275 | -71.52372 | 1088 ft | 76 kts | 227° |
| 2026-04-12 22:03 | 42.79985 | -71.52946 | 897 ft | 74 kts | 222° |
| 2026-04-12 22:03 | 42.79638 | -71.53455 | 748 ft | 70 kts | 212° |
| 2026-04-12 22:03 | 42.79252 | -71.53412 | 537 ft | 61 kts | 137° |
| 2026-04-12 22:03 | 42.78990 | -71.52978 | 370 ft | 58 kts | 123° |
| 2026-04-12 22:04 | 42.78786 | -71.52557 | 271 ft | 49 kts | 123° |
| 2026-04-12 22:04 | 42.78617 | -71.52204 | 208 ft | 40 kts | 123° |
| 2026-04-12 22:04 | 42.78503 | -71.51961 | 209 ft | 23 kts | 122° |
| 2026-04-12 22:04 | 42.78445 | -71.51937 | 200 ft | 8 kts | 215° |
| 2026-04-12 22:05 | 42.78405 | -71.51973 | 200 ft | 6 kts | 213° |
| 2026-04-12 22:05 | 42.78370 | -71.52004 | 200 ft | 6 kts | 212° |
| 2026-04-12 22:05 | 42.78322 | -71.52046 | 208 ft | 9 kts | 213° |
| 2026-04-12 22:05 | 42.78273 | -71.52087 | 202 ft | 6 kts | 197° |
| 2026-04-12 22:06 | 42.78251 | -71.52042 | 204 ft | 6 kts | 110° |
| 2026-04-12 22:06 | 42.78257 | -71.52023 | 200 ft | 0 kts | 355° |
| 2026-04-12 22:06 | 42.78264 | -71.52035 | 206 ft | 0 kts | 300° |